createdAt,value
2017-04-30T00:00:40.824Z,73.33
2017-04-30T00:01:21.449Z,73.33
2017-04-30T00:02:02.106Z,73.33
2017-04-30T00:02:42.781Z,73.24
2017-04-30T00:03:23.420Z,73.43
2017-04-30T00:04:04.055Z,73.24
2017-04-30T00:04:44.726Z,73.24
2017-04-30T00:05:25.380Z,73.43
2017-04-30T00:06:06.014Z,73.33
2017-04-30T00:06:46.670Z,73.43
2017-04-30T00:07:27.338Z,73.61
2017-04-30T00:08:09.038Z,73.71
2017-04-30T00:08:49.650Z,73.61
2017-04-30T00:09:30.351Z,73.43
2017-04-30T00:10:10.976Z,73.43
2017-04-30T00:10:51.614Z,73.9
2017-04-30T00:11:32.273Z,73.9
2017-04-30T00:12:12.932Z,73.9
2017-04-30T00:12:53.575Z,73.71
2017-04-30T00:13:35.262Z,73.8
2017-04-30T00:14:15.924Z,73.71
2017-04-30T00:14:56.558Z,73.8
2017-04-30T00:15:38.251Z,73.9
2017-04-30T00:16:18.937Z,73.9
2017-04-30T00:16:59.528Z,73.8
2017-04-30T00:17:40.146Z,73.99
2017-04-30T00:18:20.745Z,73.99
2017-04-30T00:19:01.404Z,74.09
2017-04-30T00:19:42.059Z,73.99
2017-04-30T00:20:22.637Z,74.37
2017-04-30T00:21:03.271Z,74.28
2017-04-30T00:21:43.919Z,74.28
2017-04-30T00:22:24.575Z,74.28
2017-04-30T00:23:05.225Z,74.18
2017-04-30T00:23:45.864Z,74.37
2017-04-30T00:24:26.558Z,74.28
2017-04-30T00:25:07.260Z,74.37
2017-04-30T00:25:48.860Z,74.05
2017-04-30T00:26:29.550Z,73.99
2017-04-30T00:27:10.244Z,74.09
2017-04-30T00:27:50.807Z,74.47
2017-04-30T00:28:31.470Z,74.47
2017-04-30T00:29:12.061Z,74.33
2017-04-30T00:29:52.689Z,74.52
2017-04-30T00:30:33.288Z,74.52
2017-04-30T00:31:13.855Z,74.81
2017-04-30T00:31:55.481Z,74.81
2017-04-30T00:32:36.134Z,74.62
2017-04-30T00:33:16.757Z,74.62
2017-04-30T00:33:57.426Z,74.52
2017-04-30T00:34:38.091Z,74.81
2017-04-30T00:35:18.720Z,74.43
2017-04-30T00:35:59.413Z,74.62
2017-04-30T00:36:40.090Z,74.52
2017-04-30T00:37:20.734Z,74.24
2017-04-30T00:38:01.410Z,74.9
2017-04-30T00:38:42.074Z,74.33
2017-04-30T00:39:22.685Z,74.9
2017-04-30T00:40:03.344Z,74.81
2017-04-30T00:40:44.000Z,74.71
2017-04-30T00:41:24.697Z,74.71
2017-04-30T00:42:05.390Z,74.33
2017-04-30T00:42:45.940Z,74.81
2017-04-30T00:43:26.597Z,74.81
2017-04-30T00:44:07.295Z,74.71
2017-04-30T00:44:48.003Z,74.81
2017-04-30T00:45:28.590Z,74.52
2017-04-30T00:46:09.219Z,74.81
2017-04-30T00:46:49.874Z,74.81
2017-04-30T00:47:30.527Z,74.9
2017-04-30T00:48:11.301Z,74.81
2017-04-30T00:48:53.006Z,74.71
2017-04-30T00:49:33.625Z,74.81
2017-04-30T00:50:14.268Z,74.81
2017-04-30T00:50:54.917Z,74.71
2017-04-30T00:51:35.588Z,74.52
2017-04-30T00:52:16.215Z,74.71
2017-04-30T00:52:56.900Z,74.62
2017-04-30T00:53:37.535Z,74.62
2017-04-30T00:54:18.174Z,74.81
2017-04-30T00:54:58.863Z,74.62
2017-04-30T00:55:39.517Z,75
2017-04-30T00:56:20.146Z,75
2017-04-30T00:57:00.796Z,75.09
2017-04-30T00:57:41.444Z,75.09
2017-04-30T00:58:22.120Z,75.19
2017-04-30T00:59:02.757Z,75.09
2017-04-30T00:59:43.406Z,75.09
2017-04-30T01:00:24.063Z,75.19
2017-04-30T01:01:04.701Z,75.19
2017-04-30T01:01:45.364Z,75.28
2017-04-30T01:02:26.015Z,75.09
2017-04-30T01:03:06.734Z,75.19
2017-04-30T01:03:47.431Z,75.19
2017-04-30T01:04:28.074Z,75.19
2017-04-30T01:05:08.737Z,75.09
2017-04-30T01:05:49.383Z,75.19
2017-04-30T01:06:30.086Z,75.09
2017-04-30T01:07:10.882Z,75.09
2017-04-30T01:07:51.462Z,75.19
2017-04-30T01:08:32.114Z,75.28
2017-04-30T01:09:12.788Z,75.09
2017-04-30T01:09:53.491Z,75.19
2017-04-30T01:10:34.068Z,75.09
2017-04-30T01:11:14.696Z,74.9
2017-04-30T01:11:55.364Z,75.19
2017-04-30T01:12:35.923Z,75.09
2017-04-30T01:13:16.581Z,74.9
2017-04-30T01:13:57.206Z,74.9
2017-04-30T01:14:37.769Z,75.09
2017-04-30T01:15:18.436Z,74.9
2017-04-30T01:15:59.173Z,75.09
2017-04-30T01:16:39.733Z,75.09
2017-04-30T01:17:20.394Z,75
2017-04-30T01:18:01.079Z,75
2017-04-30T01:18:41.775Z,75.09
2017-04-30T01:19:22.343Z,75.19
2017-04-30T01:20:02.999Z,75.19
2017-04-30T01:20:43.692Z,75.28
2017-04-30T01:21:24.298Z,75.09
2017-04-30T01:22:04.967Z,75.28
2017-04-30T01:22:45.605Z,75.09
2017-04-30T01:23:26.269Z,75.09
2017-04-30T01:24:06.917Z,75.28
2017-04-30T01:24:47.564Z,75.19
2017-04-30T01:25:28.231Z,75.28
2017-04-30T01:26:08.920Z,75.09
2017-04-30T01:26:49.617Z,75.09
2017-04-30T01:27:30.189Z,75.09
2017-04-30T01:28:10.846Z,75.09
2017-04-30T01:28:51.527Z,75.28
2017-04-30T01:29:32.235Z,75.19
2017-04-30T01:30:12.817Z,74.9
2017-04-30T01:30:53.565Z,75.09
2017-04-30T01:31:34.231Z,75.28
2017-04-30T01:32:14.879Z,74.9
2017-04-30T01:32:55.560Z,75.09
2017-04-30T01:33:36.279Z,75.09
2017-04-30T01:34:16.934Z,75.09
2017-04-30T01:34:57.604Z,75.28
2017-04-30T01:35:38.320Z,75.09
2017-04-30T01:36:20.041Z,75
2017-04-30T01:37:00.752Z,75
2017-04-30T01:37:41.414Z,75
2017-04-30T01:38:22.072Z,75.28
2017-04-30T01:39:02.755Z,75.19
2017-04-30T01:39:43.457Z,75.38
2017-04-30T01:40:24.030Z,74.9
2017-04-30T01:41:04.687Z,75.28
2017-04-30T01:41:45.337Z,74.9
2017-04-30T01:42:26.003Z,75.09
2017-04-30T01:43:06.651Z,75
2017-04-30T01:43:47.300Z,75.09
2017-04-30T01:44:27.954Z,75.09
2017-04-30T01:45:08.607Z,75.19
2017-04-30T01:45:49.295Z,75
2017-04-30T01:46:31.021Z,75
2017-04-30T01:47:11.694Z,75.09
2017-04-30T01:47:52.358Z,75.09
2017-04-30T01:48:32.987Z,75.09
2017-04-30T01:49:13.684Z,75.19
2017-04-30T01:49:54.296Z,75
2017-04-30T01:50:34.949Z,75.28
2017-04-30T01:51:15.682Z,74.9
2017-04-30T01:51:56.259Z,75.19
2017-04-30T01:52:36.885Z,75.09
2017-04-30T01:53:17.546Z,74.9
2017-04-30T01:53:58.116Z,75.19
2017-04-30T01:54:38.767Z,75.19
2017-04-30T01:55:19.393Z,74.81
2017-04-30T01:55:59.962Z,75.19
2017-04-30T01:56:40.617Z,75.19
2017-04-30T01:57:21.320Z,75.28
2017-04-30T01:58:02.007Z,75.28
2017-04-30T01:58:42.564Z,75.28
2017-04-30T01:59:23.236Z,75.47
2017-04-30T02:00:03.927Z,75.28
2017-04-30T02:00:44.620Z,75.28
2017-04-30T02:01:25.179Z,75.28
2017-04-30T02:02:06.865Z,75.47
2017-04-30T02:02:47.563Z,75.38
2017-04-30T02:03:28.255Z,75.38
2017-04-30T02:04:08.821Z,75.28
2017-04-30T02:04:49.480Z,75.28
2017-04-30T02:05:30.167Z,75.47
2017-04-30T02:06:10.866Z,75.47
2017-04-30T02:06:51.529Z,75.38
2017-04-30T02:07:32.173Z,75.47
2017-04-30T02:08:12.835Z,75.19
2017-04-30T02:08:53.477Z,75.28
2017-04-30T02:09:34.133Z,75.57
2017-04-30T02:10:14.783Z,75.85
2017-04-30T02:10:55.341Z,75.47
2017-04-30T02:11:36.003Z,75.38
2017-04-30T02:12:16.688Z,75.47
2017-04-30T02:12:57.396Z,75.57
2017-04-30T02:13:37.965Z,75.47
2017-04-30T02:14:18.623Z,75.95
2017-04-30T02:14:59.317Z,75.95
2017-04-30T02:15:40.007Z,76.04
2017-04-30T02:16:20.662Z,75.85
2017-04-30T02:17:01.314Z,76.04
2017-04-30T02:17:41.965Z,75.95
2017-04-30T02:18:22.617Z,76.23
2017-04-30T02:19:03.285Z,75.66
2017-04-30T02:19:43.923Z,76.32
2017-04-30T02:20:25.163Z,76.32
2017-04-30T02:21:05.810Z,75.47
2017-04-30T02:21:46.475Z,75.85
2017-04-30T02:22:28.151Z,75.47
2017-04-30T02:23:08.795Z,75.57
2017-04-30T02:23:49.452Z,75.57
2017-04-30T02:24:30.103Z,75.85
2017-04-30T02:25:10.755Z,75.57
2017-04-30T02:25:51.326Z,75.57
2017-04-30T02:26:31.968Z,75.95
2017-04-30T02:27:12.611Z,75.66
2017-04-30T02:27:53.193Z,75.76
2017-04-30T02:28:33.826Z,76.14
2017-04-30T02:29:14.482Z,76.14
2017-04-30T02:29:55.067Z,76.23
2017-04-30T02:30:35.688Z,75.85
2017-04-30T02:31:16.324Z,75.95
2017-04-30T02:31:56.976Z,76.04
2017-04-30T02:32:38.326Z,76.14
2017-04-30T02:33:19.011Z,76
2017-04-30T02:33:59.653Z,76.14
2017-04-30T02:34:40.306Z,76.23
2017-04-30T02:35:20.960Z,76.42
2017-04-30T02:36:01.554Z,76.23
2017-04-30T02:36:42.239Z,76.04
2017-04-30T02:37:22.930Z,76.32
2017-04-30T02:38:03.474Z,76.19
2017-04-30T02:38:44.150Z,75.95
2017-04-30T02:39:24.772Z,76.04
2017-04-30T02:40:05.347Z,75.95
2017-04-30T02:40:46.024Z,76.14
2017-04-30T02:41:26.733Z,76.04
2017-04-30T02:42:07.390Z,76.32
2017-04-30T02:42:48.037Z,76.04
2017-04-30T02:43:28.689Z,76.14
2017-04-30T02:44:09.351Z,75.85
2017-04-30T02:44:50.013Z,76.23
2017-04-30T02:45:30.654Z,76.32
2017-04-30T02:46:11.304Z,76.38
2017-04-30T02:46:51.990Z,76.23
2017-04-30T02:47:32.615Z,76.29
2017-04-30T02:48:13.269Z,76.14
2017-04-30T02:48:53.931Z,76.14
2017-04-30T02:49:34.576Z,76
2017-04-30T02:50:15.226Z,76
2017-04-30T02:50:55.878Z,76.19
2017-04-30T02:51:36.529Z,76.1
2017-04-30T02:52:17.177Z,76.38
2017-04-30T02:52:57.852Z,76.19
2017-04-30T02:53:39.307Z,76.57
2017-04-30T02:54:19.972Z,76.42
2017-04-30T02:55:00.626Z,76.48
2017-04-30T02:55:41.261Z,76.19
2017-04-30T02:56:22.032Z,76.19
2017-04-30T02:57:02.670Z,76.38
2017-04-30T02:57:43.342Z,76.38
2017-04-30T02:58:23.991Z,76.29
2017-04-30T02:59:04.627Z,76.76
2017-04-30T02:59:45.273Z,76.19
2017-04-30T03:00:25.946Z,76.76
2017-04-30T03:01:06.588Z,76.86
2017-04-30T03:01:48.267Z,76.76
2017-04-30T03:02:29.023Z,76.86
2017-04-30T03:03:09.674Z,76.67
2017-04-30T03:03:50.332Z,76.76
2017-04-30T03:04:30.984Z,76.76
2017-04-30T03:05:11.642Z,76.76
2017-04-30T03:05:52.292Z,76.67
2017-04-30T03:06:32.941Z,76.57
2017-04-30T03:07:13.595Z,76.76
2017-04-30T03:07:54.253Z,76.67
2017-04-30T03:08:34.915Z,76.67
2017-04-30T03:09:15.545Z,76.76
2017-04-30T03:09:56.225Z,76.95
2017-04-30T03:10:36.861Z,76.86
2017-04-30T03:11:17.434Z,76.86
2017-04-30T03:11:58.062Z,76.57
2017-04-30T03:12:38.787Z,76.57
2017-04-30T03:13:19.475Z,77.14
2017-04-30T03:14:00.056Z,77.14
2017-04-30T03:14:40.743Z,76.86
2017-04-30T03:15:21.395Z,76.95
2017-04-30T03:16:02.085Z,77.14
2017-04-30T03:16:42.753Z,77.04
2017-04-30T03:17:23.397Z,77.14
2017-04-30T03:18:04.055Z,77.14
2017-04-30T03:18:44.698Z,76.86
2017-04-30T03:19:25.362Z,77.04
2017-04-30T03:20:05.996Z,77.04
2017-04-30T03:20:46.651Z,77.23
2017-04-30T03:21:27.214Z,77.7
2017-04-30T03:22:07.868Z,77.7
2017-04-30T03:22:48.466Z,77.61
2017-04-30T03:23:29.164Z,77.42
2017-04-30T03:24:09.734Z,77.61
2017-04-30T03:24:50.400Z,77.42
2017-04-30T03:25:31.088Z,77.42
2017-04-30T03:26:11.788Z,77.33
2017-04-30T03:26:52.356Z,77.14
2017-04-30T03:27:33.001Z,77.33
2017-04-30T03:28:13.701Z,77.23
2017-04-30T03:28:54.387Z,77.42
2017-04-30T03:29:34.978Z,77.42
2017-04-30T03:30:15.610Z,77.7
2017-04-30T03:30:56.312Z,77.42
2017-04-30T03:31:38.047Z,77.61
2017-04-30T03:32:18.654Z,77.42
2017-04-30T03:32:59.345Z,77.33
2017-04-30T03:33:40.049Z,77.89
2017-04-30T03:34:20.742Z,77.89
2017-04-30T03:35:01.311Z,77.8
2017-04-30T03:35:41.970Z,77.7
2017-04-30T03:36:22.664Z,77.7
2017-04-30T03:37:05.325Z,77.23
2017-04-30T03:37:45.976Z,77.7
2017-04-30T03:38:26.609Z,77.51
2017-04-30T03:39:07.272Z,77.61
2017-04-30T03:39:47.929Z,77.51
2017-04-30T03:40:28.576Z,77.33
2017-04-30T03:41:09.217Z,77.51
2017-04-30T03:41:49.873Z,77.7
2017-04-30T03:42:30.551Z,77.33
2017-04-30T03:43:11.185Z,78.27
2017-04-30T03:43:51.847Z,78.08
2017-04-30T03:44:32.517Z,77.99
2017-04-30T03:45:13.933Z,78.27
2017-04-30T03:45:54.619Z,78.27
2017-04-30T03:46:35.307Z,77.8
2017-04-30T03:47:16.010Z,77.99
2017-04-30T03:47:56.572Z,78.27
2017-04-30T03:48:37.227Z,77.99
2017-04-30T03:49:17.933Z,78.37
2017-04-30T03:49:58.622Z,78.37
2017-04-30T03:50:39.187Z,77.89
2017-04-30T03:51:19.867Z,78.18
2017-04-30T03:52:00.545Z,78.18
2017-04-30T03:52:41.233Z,78.27
2017-04-30T03:53:21.794Z,78.18
2017-04-30T03:54:02.451Z,77.89
2017-04-30T03:54:45.083Z,77.89
2017-04-30T03:55:25.792Z,78.18
2017-04-30T03:56:06.357Z,78.56
2017-04-30T03:56:47.030Z,78.27
2017-04-30T03:57:28.675Z,78.37
2017-04-30T03:58:09.335Z,78.56
2017-04-30T03:58:52.056Z,78.37
2017-04-30T03:59:32.692Z,78.56
2017-04-30T04:00:13.348Z,78.37
2017-04-30T04:00:56.052Z,78.46
2017-04-30T04:01:36.720Z,78.08
2017-04-30T04:02:18.381Z,78.08
2017-04-30T04:02:59.027Z,78.94
2017-04-30T04:03:39.676Z,78.94
2017-04-30T04:04:20.351Z,78.85
2017-04-30T04:05:01.038Z,78.75
2017-04-30T04:05:41.761Z,78.85
2017-04-30T04:06:24.444Z,78.94
2017-04-30T04:07:05.093Z,78.94
2017-04-30T04:07:46.768Z,78.85
2017-04-30T04:08:27.443Z,78.85
2017-04-30T04:09:08.074Z,78.85
2017-04-30T04:09:48.743Z,78.65
2017-04-30T04:10:29.403Z,78.65
2017-04-30T04:11:10.047Z,78.27
2017-04-30T04:11:50.685Z,78.56
2017-04-30T04:12:33.402Z,78.75
2017-04-30T04:13:14.057Z,79.03
2017-04-30T04:13:54.711Z,78.75
2017-04-30T04:14:35.344Z,78.65
2017-04-30T04:15:16.016Z,78.56
2017-04-30T04:15:56.676Z,78.56
2017-04-30T04:16:37.394Z,79.03
2017-04-30T04:17:17.965Z,78.94
2017-04-30T04:17:58.633Z,79.03
2017-04-30T04:18:40.276Z,79.03
2017-04-30T04:19:20.828Z,78.65
2017-04-30T04:20:01.498Z,79.03
2017-04-30T04:20:42.132Z,79.03
2017-04-30T04:21:22.782Z,78.65
2017-04-30T04:22:03.440Z,78.85
2017-04-30T04:22:44.094Z,78.85
2017-04-30T04:23:24.742Z,78.94
2017-04-30T04:24:05.396Z,78.85
2017-04-30T04:24:46.052Z,78.85
2017-04-30T04:25:26.704Z,78.56
2017-04-30T04:26:07.279Z,78.85
2017-04-30T04:26:47.924Z,78.75
2017-04-30T04:27:28.611Z,78.85
2017-04-30T04:28:09.316Z,78.75
2017-04-30T04:28:49.862Z,78.94
2017-04-30T04:29:30.534Z,78.85
2017-04-30T04:30:11.222Z,78.75
2017-04-30T04:30:51.916Z,78.56
2017-04-30T04:31:32.501Z,78.85
2017-04-30T04:32:13.154Z,78.85
2017-04-30T04:32:53.806Z,77.99
2017-04-30T04:33:34.460Z,78.85
2017-04-30T04:34:15.103Z,79.03
2017-04-30T04:34:55.766Z,78.65
2017-04-30T04:35:36.410Z,78.85
2017-04-30T04:36:17.070Z,78.65
2017-04-30T04:36:57.717Z,78.85
2017-04-30T04:37:38.367Z,78.85
2017-04-30T04:38:19.021Z,78.94
2017-04-30T04:38:59.678Z,78.65
2017-04-30T04:39:40.318Z,78.94
2017-04-30T04:40:20.983Z,78.94
2017-04-30T04:41:01.633Z,78.94
2017-04-30T04:41:42.292Z,78.94
2017-04-30T04:42:22.937Z,79.03
2017-04-30T04:43:03.597Z,78.94
2017-04-30T04:43:44.239Z,78.27
2017-04-30T04:44:24.958Z,78.27
2017-04-30T04:45:05.664Z,78.37
2017-04-30T04:45:46.307Z,78.37
2017-04-30T04:46:26.975Z,78.56
2017-04-30T04:47:07.618Z,78.18
2017-04-30T04:47:48.268Z,78.46
2017-04-30T04:48:28.917Z,78.27
2017-04-30T04:49:09.570Z,77.99
2017-04-30T04:49:50.224Z,77.99
2017-04-30T04:50:30.892Z,77.89
2017-04-30T04:51:11.535Z,78.22
2017-04-30T04:51:52.189Z,78.03
2017-04-30T04:52:32.833Z,77.94
2017-04-30T04:53:13.494Z,77.99
2017-04-30T04:53:54.160Z,78.13
2017-04-30T04:54:34.797Z,78.13
2017-04-30T04:55:15.469Z,78.13
2017-04-30T04:55:56.132Z,77.65
2017-04-30T04:56:36.801Z,77.65
2017-04-30T04:57:17.521Z,77.75
2017-04-30T04:57:58.102Z,77.56
2017-04-30T04:58:38.820Z,77.37
2017-04-30T04:59:19.510Z,77.65
2017-04-30T05:00:00.207Z,77.56
2017-04-30T05:00:40.778Z,77.46
2017-04-30T05:01:21.441Z,77.27
2017-04-30T05:02:02.121Z,77.37
2017-04-30T05:02:42.832Z,77.46
2017-04-30T05:03:23.394Z,77.46
2017-04-30T05:04:04.055Z,77.75
2017-04-30T05:04:44.739Z,77.27
2017-04-30T05:05:25.431Z,77.08
2017-04-30T05:06:05.983Z,77.08
2017-04-30T05:06:46.653Z,76.89
2017-04-30T05:07:27.282Z,77.08
2017-04-30T05:08:07.865Z,77.37
2017-04-30T05:08:48.519Z,76.61
2017-04-30T05:09:29.146Z,76.89
2017-04-30T05:10:09.710Z,76.7
2017-04-30T05:10:50.373Z,76.8
2017-04-30T05:11:31.105Z,76.8
2017-04-30T05:12:11.786Z,76.61
2017-04-30T05:12:52.411Z,76.8
2017-04-30T05:13:33.062Z,76.8
2017-04-30T05:14:13.718Z,76.32
2017-04-30T05:14:54.370Z,76.46
2017-04-30T05:15:35.024Z,76.27
2017-04-30T05:16:15.578Z,76.08
2017-04-30T05:16:56.239Z,76.08
2017-04-30T05:17:36.892Z,76.27
2017-04-30T05:18:17.553Z,76.27
2017-04-30T05:18:58.222Z,76.17
2017-04-30T05:19:38.866Z,75.98
2017-04-30T05:20:19.512Z,76.27
2017-04-30T05:21:00.145Z,76.08
2017-04-30T05:21:40.790Z,75.7
2017-04-30T05:22:21.349Z,75.89
2017-04-30T05:23:02.016Z,75.89
2017-04-30T05:23:42.769Z,75.7
2017-04-30T05:24:23.349Z,76.08
2017-04-30T05:25:04.077Z,75.98
2017-04-30T05:25:44.647Z,75.7
2017-04-30T05:26:25.225Z,75.51
2017-04-30T05:27:05.777Z,75.42
2017-04-30T05:27:46.339Z,75.79
2017-04-30T05:28:27.015Z,75.32
2017-04-30T05:29:07.666Z,75.13
2017-04-30T05:29:48.261Z,75.13
2017-04-30T05:30:28.860Z,75.04
2017-04-30T05:31:09.541Z,75.23
2017-04-30T05:31:50.196Z,75.23
2017-04-30T05:32:30.847Z,75.13
2017-04-30T05:33:11.559Z,75.23
2017-04-30T05:33:52.204Z,75.04
2017-04-30T05:34:32.930Z,74.85
2017-04-30T05:35:13.615Z,74.85
2017-04-30T05:35:54.266Z,74.75
2017-04-30T05:36:34.950Z,74.69
2017-04-30T05:37:15.517Z,74.88
2017-04-30T05:37:56.175Z,74.66
2017-04-30T05:38:37.901Z,74.79
2017-04-30T05:39:18.608Z,74.6
2017-04-30T05:39:59.200Z,74.13
2017-04-30T05:40:39.937Z,74.41
2017-04-30T05:41:20.636Z,74.13
2017-04-30T05:42:01.370Z,74.32
2017-04-30T05:42:42.037Z,73.94
2017-04-30T05:43:22.801Z,74.03
2017-04-30T05:44:03.552Z,73.75
2017-04-30T05:44:44.292Z,73.75
2017-04-30T05:45:24.944Z,73.37
2017-04-30T05:46:05.598Z,73.75
2017-04-30T05:46:46.163Z,73.65
2017-04-30T05:47:26.883Z,73.27
2017-04-30T05:48:07.586Z,73.65
2017-04-30T05:48:48.155Z,73.18
2017-04-30T05:49:28.805Z,72.99
2017-04-30T05:50:09.463Z,73.08
2017-04-30T05:50:50.045Z,72.99
2017-04-30T05:51:30.793Z,73.08
2017-04-30T05:52:11.474Z,73.08
2017-04-30T05:52:52.158Z,73.08
2017-04-30T05:53:32.727Z,73.08
2017-04-30T05:54:13.406Z,72.61
2017-04-30T05:54:54.077Z,72.99
2017-04-30T05:55:34.792Z,72.89
2017-04-30T05:56:15.398Z,72.8
2017-04-30T05:56:56.122Z,72.71
2017-04-30T05:57:36.750Z,72.55
2017-04-30T05:58:17.404Z,72.52
2017-04-30T05:58:58.079Z,72.23
2017-04-30T05:59:38.814Z,72.17
2017-04-30T06:00:19.449Z,72.23
2017-04-30T06:01:00.114Z,72.23
2017-04-30T06:01:40.771Z,72.42
2017-04-30T06:02:21.444Z,72.04
2017-04-30T06:03:02.178Z,72.52
2017-04-30T06:03:42.867Z,71.89
2017-04-30T06:04:23.593Z,71.89
2017-04-30T06:05:04.255Z,71.89
2017-04-30T06:05:45.113Z,71.98
2017-04-30T06:06:25.753Z,72.36
2017-04-30T06:07:06.405Z,71.89
2017-04-30T06:07:47.052Z,71.7
2017-04-30T06:08:27.734Z,72.27
2017-04-30T06:09:08.598Z,72.36
2017-04-30T06:09:49.326Z,71.8
2017-04-30T06:10:29.987Z,71.98
2017-04-30T06:11:10.629Z,71.98
2017-04-30T06:11:51.282Z,72.08
2017-04-30T06:12:31.959Z,72.08
2017-04-30T06:13:12.728Z,71.51
2017-04-30T06:13:53.516Z,71.7
2017-04-30T06:14:34.223Z,71.7
2017-04-30T06:15:14.992Z,71.7
2017-04-30T06:15:55.738Z,71.6
2017-04-30T06:16:36.328Z,71.89
2017-04-30T06:17:17.027Z,71.89
2017-04-30T06:17:57.699Z,71.51
2017-04-30T06:18:38.427Z,71.51
2017-04-30T06:19:19.138Z,71.03
2017-04-30T06:19:59.866Z,71.41
2017-04-30T06:20:40.623Z,71.41
2017-04-30T06:21:21.366Z,71.51
2017-04-30T06:22:02.032Z,71.32
2017-04-30T06:22:42.747Z,71.13
2017-04-30T06:23:23.368Z,71.32
2017-04-30T06:24:04.053Z,71.13
2017-04-30T06:24:44.764Z,70.94
2017-04-30T06:25:25.457Z,70.94
2017-04-30T06:26:06.117Z,71.22
2017-04-30T06:26:46.792Z,71.22
2017-04-30T07:06:33.582Z,67.72
2017-04-30T07:07:14.288Z,67.72
2017-04-30T07:07:54.939Z,67.53
2017-04-30T07:08:35.614Z,67.06
2017-04-30T07:09:16.349Z,66.96
2017-04-30T07:09:57.121Z,67.44
2017-04-30T07:10:37.866Z,67.44
2017-04-30T07:11:18.624Z,67.25
2017-04-30T07:11:59.370Z,67.25
2017-04-30T07:12:40.011Z,67.15
2017-04-30T07:13:20.679Z,67.25
2017-04-30T07:14:01.419Z,67.34
2017-04-30T07:14:42.170Z,67.34
2017-04-30T07:15:22.927Z,66.96
2017-04-30T07:16:03.679Z,66.96
2017-04-30T07:16:44.436Z,67.06
2017-04-30T07:17:26.111Z,67.06
2017-04-30T07:18:06.768Z,67.06
2017-04-30T07:18:47.514Z,67.15
2017-04-30T07:19:28.275Z,66.52
2017-04-30T07:20:09.953Z,66.39
2017-04-30T07:20:50.598Z,66.42
2017-04-30T07:21:31.158Z,66.33
2017-04-30T07:22:11.819Z,66.61
2017-04-30T07:22:52.528Z,66.61
2017-04-30T07:23:35.267Z,66.61
2017-04-30T07:24:15.827Z,66.61
2017-04-30T07:24:56.489Z,66.71
2017-04-30T07:25:38.204Z,66.8
2017-04-30T07:26:18.910Z,66.33
2017-04-30T07:26:59.503Z,66.14
2017-04-30T07:27:41.276Z,66.24
2017-04-30T07:28:23.946Z,66.24
2017-04-30T07:29:05.639Z,66.33
2017-04-30T07:29:48.368Z,66.14
2017-04-30T07:30:29.076Z,66.14
2017-04-30T07:31:09.829Z,66.14
2017-04-30T07:31:50.486Z,66.05
2017-04-30T07:32:31.138Z,66.33
2017-04-30T07:33:11.945Z,66.14
2017-04-30T07:33:52.663Z,65.95
2017-04-30T07:34:33.441Z,65.86
2017-04-30T07:35:15.198Z,66.05
2017-04-30T07:35:56.013Z,65.47
2017-04-30T07:36:36.696Z,65.57
2017-04-30T07:37:17.350Z,65.32
2017-04-30T07:37:59.043Z,65.7
2017-04-30T07:38:39.798Z,65.22
2017-04-30T07:39:20.552Z,64.94
2017-04-30T07:40:01.292Z,64.94
2017-04-30T07:40:42.047Z,65.13
2017-04-30T07:41:23.754Z,65.32
2017-04-30T07:42:04.489Z,64.56
2017-04-30T07:42:46.169Z,64.65
2017-04-30T07:43:27.476Z,64.75
2017-04-30T07:44:08.216Z,64.75
2017-04-30T07:44:48.931Z,64.94
2017-04-30T07:45:29.717Z,64.84
2017-04-30T07:46:10.479Z,64.65
2017-04-30T07:46:51.255Z,64.65
2017-04-30T07:47:31.993Z,64.37
2017-04-30T07:48:12.792Z,64.27
2017-04-30T07:48:53.475Z,64.37
2017-04-30T07:49:34.219Z,64.37
2017-04-30T07:50:14.985Z,64.21
2017-04-30T07:50:56.672Z,64.21
2017-04-30T07:51:37.441Z,64.5
2017-04-30T07:52:18.169Z,64.21
2017-04-30T07:53:03.548Z,64.02
2017-04-30T07:53:44.284Z,63.45
2017-04-30T07:54:25.964Z,63.54
2017-04-30T07:55:06.725Z,63.54
2017-04-30T07:55:47.489Z,63.73
2017-04-30T07:56:33.049Z,63.64
2017-04-30T07:57:13.784Z,63.73
2017-04-30T07:57:54.337Z,63.35
2017-04-30T07:58:34.887Z,63.73
2017-04-30T07:59:16.586Z,63.64
2017-04-30T07:59:57.272Z,63.26
2017-04-30T08:00:38.494Z,63.17
2017-04-30T08:01:19.073Z,62.97
2017-04-30T08:02:00.843Z,62.91
2017-04-30T08:02:42.495Z,62.72
2017-04-30T08:03:23.272Z,62.91
2017-04-30T08:04:04.011Z,63.01
2017-04-30T08:04:44.794Z,62.72
2017-04-30T08:05:25.568Z,62.81
2017-04-30T08:06:07.296Z,62.81
2017-04-30T08:06:47.871Z,62.81
2017-04-30T08:07:29.682Z,62.53
2017-04-30T08:08:10.442Z,62.53
2017-04-30T08:08:52.150Z,62.43
2017-04-30T08:09:32.717Z,62.24
2017-04-30T08:10:13.292Z,61.96
2017-04-30T08:10:55.047Z,62.05
2017-04-30T08:11:35.767Z,62.24
2017-04-30T08:12:16.449Z,62.15
2017-04-30T08:12:57.000Z,61.86
2017-04-30T08:13:37.798Z,61.96
2017-04-30T08:14:18.578Z,61.96
2017-04-30T08:14:59.266Z,61.77
2017-04-30T08:15:39.845Z,61.8
2017-04-30T08:16:20.594Z,61.42
2017-04-30T08:17:01.335Z,61.38
2017-04-30T08:17:41.900Z,61.29
2017-04-30T08:18:22.646Z,61.29
2017-04-30T08:19:03.394Z,61.58
2017-04-30T08:19:43.962Z,61.51
2017-04-30T08:20:24.725Z,61.13
2017-04-30T08:21:07.397Z,60.94
2017-04-30T08:21:47.967Z,60.94
2017-04-30T08:22:28.630Z,60.85
2017-04-30T08:23:09.426Z,60.94
2017-04-30T08:23:50.226Z,60.56
2017-04-30T08:24:30.807Z,60.75
2017-04-30T08:25:11.549Z,60.46
2017-04-30T08:25:52.237Z,60.27
2017-04-30T08:26:32.928Z,59.8
2017-04-30T08:27:13.698Z,59.7
2017-04-30T08:27:54.436Z,59.42
2017-04-30T08:28:35.206Z,59.51
2017-04-30T08:29:15.957Z,59.51
2017-04-30T08:29:56.714Z,59.51
2017-04-30T08:30:37.481Z,59.42
2017-04-30T08:31:19.256Z,59.61
2017-04-30T08:31:59.830Z,59.61
2017-04-30T08:32:40.715Z,59.45
2017-04-30T08:33:21.458Z,59.42
2017-04-30T08:34:02.251Z,59.74
2017-04-30T08:34:42.956Z,59.54
2017-04-30T08:35:23.742Z,59.64
2017-04-30T08:36:04.447Z,59.64
2017-04-30T08:36:45.192Z,59.45
2017-04-30T08:37:25.903Z,59.35
2017-04-30T08:38:06.594Z,59.35
2017-04-30T08:38:47.146Z,59.06
2017-04-30T08:39:27.956Z,59.06
2017-04-30T08:40:08.621Z,59.16
2017-04-30T08:40:49.415Z,59.35
2017-04-30T08:41:30.034Z,58.69
2017-04-30T08:42:10.861Z,58.69
2017-04-30T08:42:51.595Z,58.78
2017-04-30T08:43:32.391Z,58.59
2017-04-30T08:44:13.085Z,58.52
2017-04-30T08:44:53.883Z,58.52
2017-04-30T08:45:34.625Z,58.52
2017-04-30T08:46:15.372Z,58.14
2017-04-30T08:46:56.107Z,58.33
2017-04-30T08:47:36.866Z,57.67
2017-04-30T08:48:17.451Z,58.04
2017-04-30T08:48:58.005Z,58.14
2017-04-30T08:49:38.552Z,57.38
2017-04-30T08:50:19.107Z,57.57
2017-04-30T08:50:59.664Z,57.57
2017-04-30T08:51:40.379Z,57.57
2017-04-30T08:52:22.055Z,57.67
2017-04-30T08:53:02.633Z,57.38
2017-04-30T08:53:43.277Z,57.28
2017-04-30T08:54:23.973Z,57.19
2017-04-30T08:55:04.653Z,57.28
2017-04-30T08:55:45.226Z,57.5
2017-04-30T08:56:25.895Z,57.31
2017-04-30T08:57:06.583Z,57.31
2017-04-30T08:57:47.187Z,56.93
2017-04-30T08:58:27.852Z,56.93
2017-04-30T08:59:08.594Z,57.12
2017-04-30T08:59:49.258Z,56.46
2017-04-30T09:00:30.025Z,56.55
2017-04-30T09:02:18.086Z,56.07
2017-04-30T09:02:58.693Z,56.36
2017-04-30T09:03:39.378Z,56.1
2017-04-30T09:04:22.102Z,55.43
2017-04-30T09:05:02.680Z,55.91
2017-04-30T09:05:44.390Z,55.15
2017-04-30T09:06:26.042Z,55.24
2017-04-30T09:07:06.804Z,54.96
2017-04-30T09:07:48.481Z,54.96
2017-04-30T09:08:29.141Z,54.48
2017-04-30T09:09:09.927Z,54.48
2017-04-30T09:09:51.558Z,54.1
2017-04-30T09:10:32.233Z,54.29
2017-04-30T09:11:12.873Z,54.19
2017-04-30T09:11:53.547Z,54.38
2017-04-30T09:12:34.200Z,54.67
2017-04-30T09:13:14.842Z,54.19
2017-04-30T09:13:55.486Z,54.38
2017-04-30T09:14:37.075Z,54.38
2017-04-30T09:15:17.705Z,54.03
2017-04-30T09:15:58.370Z,54.41
2017-04-30T09:16:39.010Z,54.03
2017-04-30T09:17:21.614Z,54.13
2017-04-30T09:18:02.279Z,53.93
2017-04-30T09:18:42.936Z,53.84
2017-04-30T09:19:23.622Z,53.65
2017-04-30T09:20:04.235Z,53.84
2017-04-30T09:20:44.875Z,53.74
2017-04-30T09:21:25.589Z,53.27
2017-04-30T09:22:06.136Z,53.45
2017-04-30T09:22:46.691Z,53.39
2017-04-30T09:23:27.289Z,53.2
2017-04-30T09:24:07.923Z,53.2
2017-04-30T09:24:48.561Z,52.53
2017-04-30T09:25:29.253Z,52.43
2017-04-30T09:26:15.948Z,52.24
2017-04-30T09:26:56.519Z,51.95
2017-04-30T09:27:37.158Z,52.24